Time;durP1;ratioP1;P1;durP2;ratioP2;P2;SDS_P1;SDS_P2;PMS_P1;PMS_P2;Temp;Humidity;BMP_temperature;BMP_pressure;BME280_temperature;BME280_humidity;BME280_pressure;Samples;Min_cycle;Max_cycle;Signal;HPM_P1;HPM_P2
2024/01/21 00:00:52;;;;;;;21.13;13.87;;;;;;;-3.91;100.00;99246.75;5116789;28;20961;-75
2024/01/21 00:03:18;;;;;;;23.73;15.53;;;;;;;-3.95;100.00;99242.69;5116560;28;21015;-75
2024/01/21 00:05:45;;;;;;;23.07;14.53;;;;;;;-3.96;100.00;99238.44;5116511;28;20923;-75
2024/01/21 00:08:12;;;;;;;23.80;14.60;;;;;;;-4.01;100.00;99252.66;5116546;28;20944;-75
2024/01/21 00:10:38;;;;;;;22.17;14.73;;;;;;;-4.03;100.00;99247.56;5116460;28;20458;-75
2024/01/21 00:13:04;;;;;;;23.20;14.33;;;;;;;-3.98;100.00;99240.28;5116790;28;20440;-75
2024/01/21 00:15:31;;;;;;;27.27;14.90;;;;;;;-3.99;100.00;99242.97;5116727;28;20431;-75
2024/01/21 00:17:57;;;;;;;27.57;15.20;;;;;;;-4.00;100.00;99238.72;5115570;28;20436;-75
2024/01/21 00:20:24;;;;;;;22.87;13.97;;;;;;;-4.06;100.00;99247.78;5116163;28;20466;-75
2024/01/21 00:22:50;;;;;;;21.73;13.43;;;;;;;-4.02;100.00;99244.00;5116427;28;20464;-75
2024/01/21 00:25:16;;;;;;;25.43;14.70;;;;;;;-4.04;100.00;99240.69;5116496;28;20431;-75
2024/01/21 00:27:43;;;;;;;20.73;13.97;;;;;;;-4.02;100.00;99233.63;5116236;28;20526;-75
2024/01/21 00:30:09;;;;;;;23.90;13.87;;;;;;;-4.09;100.00;99237.56;5116088;28;20971;-75
2024/01/21 00:32:36;;;;;;;22.43;13.77;;;;;;;-4.07;100.00;99240.88;5116348;28;20445;-75
2024/01/21 00:35:03;;;;;;;23.73;13.77;;;;;;;-4.12;100.00;99235.16;5116309;27;20931;-75
2024/01/21 00:37:30;;;;;;;21.17;14.23;;;;;;;-4.16;100.00;99233.69;5116280;28;20443;-75
2024/01/21 00:39:56;;;;;;;19.73;13.40;;;;;;;-4.13;100.00;99232.66;5115824;28;20989;-75
2024/01/21 00:42:23;;;;;;;20.30;13.93;;;;;;;-4.24;100.00;99225.59;5115760;28;20522;-75
2024/01/21 00:44:50;;;;;;;21.53;12.87;;;;;;;-4.17;100.00;99229.44;5115983;28;20566;-75
2024/01/21 00:47:17;;;;;;;20.53;13.93;;;;;;;-4.18;100.00;99227.78;5115833;28;20995;-75
2024/01/21 00:49:43;;;;;;;20.70;12.80;;;;;;;-4.20;100.00;99224.44;5115608;28;21001;-75
2024/01/21 00:52:10;;;;;;;20.00;14.10;;;;;;;-4.19;100.00;99231.31;5116028;28;20431;-75
2024/01/21 00:54:42;;;;;;;20.60;13.37;;;;;;;-4.16;100.00;99231.09;5115944;28;20430;-75
2024/01/21 00:57:11;;;;;;;21.80;13.97;;;;;;;-4.21;100.00;99225.38;5115560;28;20518;-75
2024/01/21 00:59:39;;;;;;;19.03;12.70;;;;;;;-4.17;100.00;99228.59;5115501;28;20451;-75
2024/01/21 01:02:09;;;;;;;19.03;12.70;;;;;;;-4.17;100.00;99232.03;5115401;28;20442;-75
2024/01/21 01:04:43;;;;;;;19.67;13.60;;;;;;;-4.26;100.00;99234.38;5115380;28;20981;-75
2024/01/21 01:07:11;;;;;;;22.13;13.77;;;;;;;-4.20;100.00;99234.00;5115320;28;20451;-75
2024/01/21 01:09:43;;;;;;;21.03;13.40;;;;;;;-4.18;100.00;99232.97;5115029;28;20466;-75
2024/01/21 01:12:15;;;;;;;19.67;13.63;;;;;;;-4.17;100.00;99232.03;5115186;28;20443;-75
2024/01/21 01:14:49;;;;;;;23.47;13.80;;;;;;;-4.16;100.00;99228.50;5115218;28;20791;-75
2024/01/21 01:17:19;;;;;;;22.17;14.10;;;;;;;-4.13;100.00;99224.88;5115032;28;20481;-75
2024/01/21 01:19:56;;;;;;;20.00;12.93;;;;;;;-4.12;100.00;99210.97;5115039;28;20535;-75
2024/01/21 01:22:23;;;;;;;23.27;13.70;;;;;;;-4.15;100.00;99212.03;5114789;28;20520;-75
2024/01/21 01:24:53;;;;;;;25.70;14.50;;;;;;;-4.12;100.00;99209.19;5114976;28;20475;-75
2024/01/21 01:27:21;;;;;;;19.63;13.70;;;;;;;-4.04;100.00;99219.09;5114950;28;20435;-75
2024/01/21 01:29:49;;;;;;;17.03;13.13;;;;;;;-4.02;100.00;99215.44;5114546;28;20455;-75
2024/01/21 01:32:19;;;;;;;21.17;14.03;;;;;;;-3.98;100.00;99229.09;5114839;28;20435;-75
2024/01/21 01:34:54;;;;;;;23.27;14.23;;;;;;;-3.99;100.00;99223.06;5114867;28;20516;-75
2024/01/21 01:37:23;;;;;;;20.80;13.30;;;;;;;-4.05;100.00;99213.06;5115032;28;20442;-75
2024/01/21 01:39:50;;;;;;;18.60;12.70;;;;;;;-4.09;100.00;99216.81;5114712;28;20530;-75
2024/01/21 01:42:17;;;;;;;20.10;13.43;;;;;;;-4.18;100.00;99213.97;5114736;28;20798;-75
2024/01/21 01:44:44;;;;;;;22.80;13.83;;;;;;;-4.11;100.00;99213.44;5115074;28;20514;-75
2024/01/21 01:47:10;;;;;;;19.77;13.20;;;;;;;-4.12;100.00;99209.19;5114929;28;20431;-75
2024/01/21 01:49:38;;;;;;;21.33;13.63;;;;;;;-4.10;100.00;99209.09;5114843;28;20451;-75
2024/01/21 01:52:06;;;;;;;25.87;13.93;;;;;;;-4.13;100.00;99204.09;5114573;27;20930;-75
2024/01/21 01:54:34;;;;;;;19.63;13.23;;;;;;;-4.11;100.00;99204.84;5114867;28;20427;-75
2024/01/21 01:57:04;;;;;;;19.87;14.20;;;;;;;-4.18;100.00;99201.81;5114844;28;20427;-75
2024/01/21 01:59:34;;;;;;;20.00;12.83;;;;;;;-4.18;100.00;99194.03;5114327;28;20459;-75
2024/01/21 02:02:01;;;;;;;17.03;12.53;;;;;;;-4.17;100.00;99198.28;5114739;28;20432;-75
2024/01/21 02:04:28;;;;;;;17.80;12.40;;;;;;;-4.20;100.00;99198.47;5114586;28;20471;-75
2024/01/21 02:06:54;;;;;;;18.00;12.10;;;;;;;-4.10;100.00;99194.38;5114228;28;20915;-75
2024/01/21 02:09:21;;;;;;;18.57;12.73;;;;;;;-4.20;100.00;99188.09;5114422;28;20455;-75
2024/01/21 02:11:48;;;;;;;26.23;13.20;;;;;;;-4.21;100.00;99183.03;5114225;28;20443;-75
2024/01/21 02:14:16;;;;;;;18.00;12.80;;;;;;;-4.21;100.00;99180.44;5114480;28;20858;-75
2024/01/21 02:16:47;;;;;;;17.60;11.70;;;;;;;-4.19;100.00;99179.38;5114074;28;20438;-75
2024/01/21 02:19:33;;;;;;;17.97;12.20;;;;;;;-4.25;100.00;99169.38;5113966;28;20444;-75
2024/01/21 02:22:01;;;;;;;15.73;11.37;;;;;;;-4.22;100.00;99168.34;5113769;28;20462;-75
2024/01/21 02:24:33;;;;;;;18.33;11.33;;;;;;;-4.24;100.00;99155.50;5113826;28;20471;-75
2024/01/21 02:27:05;;;;;;;19.53;12.47;;;;;;;-4.17;100.00;99154.16;5113879;28;20514;-75
2024/01/21 02:29:34;;;;;;;18.93;12.60;;;;;;;-4.18;100.00;99146.47;5113874;28;20538;-75
2024/01/21 02:32:00;;;;;;;17.53;12.47;;;;;;;-4.20;100.00;99146.53;5113793;28;20451;-75
2024/01/21 02:34:31;;;;;;;16.17;11.50;;;;;;;-4.23;100.00;99143.34;5114220;28;20427;-75
2024/01/21 02:37:04;;;;;;;18.93;12.80;;;;;;;-4.25;100.00;99140.03;5113891;28;20423;-75
2024/01/21 02:39:33;;;;;;;16.90;12.30;;;;;;;-4.31;100.00;99154.22;5114507;28;20543;-75
2024/01/21 02:42:02;;;;;;;16.93;11.80;;;;;;;-4.25;100.00;99150.41;5113081;28;20941;-75
2024/01/21 02:44:31;;;;;;;15.30;11.23;;;;;;;-4.31;100.00;99161.16;5113919;28;20566;-75
2024/01/21 02:47:00;;;;;;;16.00;11.17;;;;;;;-4.27;100.00;99160.88;5113714;28;20428;-75
2024/01/21 02:49:31;;;;;;;18.27;12.23;;;;;;;-4.26;100.00;99161.69;5113835;28;20459;-75
2024/01/21 02:52:00;;;;;;;16.23;11.40;;;;;;;-4.28;100.00;99168.75;5114008;28;20423;-75
2024/01/21 02:54:29;;;;;;;19.10;12.43;;;;;;;-4.27;100.00;99167.81;5113636;28;20428;-75
2024/01/21 02:56:57;;;;;;;15.33;11.17;;;;;;;-4.31;100.00;99159.41;5113568;28;20442;-75
2024/01/21 02:59:25;;;;;;;16.37;10.93;;;;;;;-4.33;100.00;99161.28;5113404;28;20957;-75
2024/01/21 03:01:54;;;;;;;16.17;11.80;;;;;;;-4.35;100.00;99157.94;5113583;28;20810;-75
2024/01/21 03:04:20;;;;;;;18.60;11.47;;;;;;;-4.36;100.00;99161.47;5113475;28;20837;-75
2024/01/21 03:06:50;;;;;;;17.67;11.00;;;;;;;-4.21;100.00;99154.47;5113428;28;20514;-75
2024/01/21 03:09:19;;;;;;;18.47;11.67;;;;;;;-4.19;100.00;99152.59;5113623;28;20466;-75
2024/01/21 03:11:49;;;;;;;16.53;11.70;;;;;;;-4.23;100.00;99151.13;5113514;28;20775;-75
2024/01/21 03:14:19;;;;;;;19.30;11.10;;;;;;;-4.25;100.00;99158.19;5113633;28;20427;-75
2024/01/21 03:16:47;;;;;;;15.60;10.93;;;;;;;-4.30;100.00;99144.69;5113586;28;20431;-75
2024/01/21 03:19:14;;;;;;;16.33;11.87;;;;;;;-4.28;100.00;99148.84;5113684;28;20436;-75
2024/01/21 03:21:42;;;;;;;17.77;12.10;;;;;;;-4.36;100.00;99145.06;5113461;28;20461;-75
2024/01/21 03:24:09;;;;;;;17.03;11.73;;;;;;;-4.28;100.00;99143.66;5113295;28;20460;-75
2024/01/21 03:26:35;;;;;;;17.53;11.73;;;;;;;-4.26;100.00;99133.97;5113613;28;20433;-75
2024/01/21 03:29:01;;;;;;;15.67;11.73;;;;;;;-4.27;100.00;99136.69;5113532;28;20523;-75
2024/01/21 03:31:28;;;;;;;19.73;12.30;;;;;;;-4.27;100.00;99134.91;5113273;28;20946;-75
2024/01/21 03:33:54;;;;;;;18.37;11.93;;;;;;;-4.29;100.00;99136.78;5113252;28;20922;-75
2024/01/21 03:36:21;;;;;;;17.43;11.60;;;;;;;-4.36;100.00;99140.72;5113394;28;20439;-75
2024/01/21 03:38:50;;;;;;;21.90;12.40;;;;;;;-4.41;100.00;99142.78;5113522;28;20427;-76
2024/01/21 03:41:17;;;;;;;18.90;12.57;;;;;;;-4.41;100.00;99136.75;5113413;28;20542;-75
2024/01/21 03:43:43;;;;;;;18.57;12.40;;;;;;;-4.44;100.00;99142.97;5113439;28;20431;-75
2024/01/21 03:46:09;;;;;;;16.60;11.70;;;;;;;-4.54;100.00;99133.28;5113478;28;20440;-75
2024/01/21 03:48:36;;;;;;;20.57;12.57;;;;;;;-4.41;100.00;99131.56;5113505;28;20438;-75
2024/01/21 03:51:03;;;;;;;17.67;12.37;;;;;;;-4.40;100.00;99122.84;5113048;28;21052;-75
2024/01/21 03:53:29;;;;;;;19.20;12.87;;;;;;;-4.44;100.00;99126.59;5115508;28;20956;-75
2024/01/21 03:55:55;;;;;;;16.47;11.57;;;;;;;-4.44;100.00;99129.19;5116763;28;20926;-75
2024/01/21 03:58:22;;;;;;;20.53;13.07;;;;;;;-4.45;100.00;99133.53;5116765;28;20945;-75
2024/01/21 04:00:48;;;;;;;18.27;12.70;;;;;;;-4.50;100.00;99133.00;5116522;28;20465;-75
2024/01/21 04:03:14;;;;;;;18.37;12.63;;;;;;;-4.61;100.00;99135.44;5116516;28;20431;-75
2024/01/21 04:05:41;;;;;;;18.30;12.10;;;;;;;-4.64;100.00;99134.81;5116248;28;20475;-75
2024/01/21 04:08:07;;;;;;;21.80;13.10;;;;;;;-4.54;100.00;99128.09;5116389;28;20442;-75
2024/01/21 04:10:34;;;;;;;18.83;12.27;;;;;;;-4.51;100.00;99120.97;5116571;28;20450;-75
2024/01/21 04:13:00;;;;;;;18.60;12.53;;;;;;;-4.47;100.00;99116.41;5116379;28;20441;-75
2024/01/21 04:15:26;;;;;;;21.83;13.20;;;;;;;-4.55;100.00;99116.91;5116642;28;20432;-75
2024/01/21 04:17:53;;;;;;;18.97;13.83;;;;;;;-4.49;100.00;99103.50;5116258;27;20843;-75
2024/01/21 04:20:19;;;;;;;18.97;13.17;;;;;;;-4.61;100.00;99099.13;5116226;28;20970;-75
2024/01/21 04:22:46;;;;;;;20.37;13.10;;;;;;;-4.59;100.00;99096.44;5116214;28;20447;-75
2024/01/21 04:25:12;;;;;;;19.60;13.07;;;;;;;-4.50;100.00;99095.81;5116347;28;20490;-75
2024/01/21 04:27:38;;;;;;;23.37;13.63;;;;;;;-4.57;100.00;99099.78;5116137;28;20776;-75
2024/01/21 04:30:05;;;;;;;20.27;13.23;;;;;;;-4.56;100.00;99094.47;5115961;28;20998;-75
2024/01/21 04:32:32;;;;;;;17.80;12.50;;;;;;;-4.54;100.00;99089.16;5116022;28;20930;-75
2024/01/21 04:34:58;;;;;;;20.97;12.93;;;;;;;-4.52;100.00;99082.13;5116267;28;20423;-75
2024/01/21 04:37:25;;;;;;;18.20;12.73;;;;;;;-4.59;100.00;99081.72;5116215;28;20427;-75
2024/01/21 04:39:51;;;;;;;22.03;13.10;;;;;;;-4.72;100.00;99086.03;5115802;28;20462;-75
2024/01/21 04:42:18;;;;;;;19.50;13.03;;;;;;;-4.66;100.00;99085.63;5116080;28;20476;-75
2024/01/21 04:44:44;;;;;;;18.93;13.13;;;;;;;-4.58;100.00;99078.16;5115714;28;21004;-75
2024/01/21 04:47:11;;;;;;;20.33;12.87;;;;;;;-4.62;100.00;99081.91;5115761;28;20436;-75
2024/01/21 04:49:37;;;;;;;18.17;12.67;;;;;;;-4.57;100.00;99079.81;5115929;28;20455;-75
2024/01/21 04:52:04;;;;;;;21.70;13.53;;;;;;;-4.47;100.00;99082.66;5115953;28;20436;-75
2024/01/21 04:54:31;;;;;;;18.70;13.00;;;;;;;-4.49;100.00;99071.53;5115942;27;20438;-75
2024/01/21 04:56:57;;;;;;;20.13;12.60;;;;;;;-4.52;100.00;99080.34;5117025;28;20492;-75
2024/01/21 04:59:24;;;;;;;19.13;12.33;;;;;;;-4.52;100.00;99082.94;5115841;28;20447;-75
2024/01/21 05:01:50;;;;;;;18.07;11.90;;;;;;;-4.53;100.00;99081.28;5115499;28;20953;-75
2024/01/21 05:04:17;;;;;;;17.53;12.53;;;;;;;-4.53;100.00;99085.66;5115174;27;20539;-75
2024/01/21 05:06:43;;;;;;;16.87;11.10;;;;;;;-4.54;100.00;99084.81;5115289;28;20979;-75
2024/01/21 05:09:10;;;;;;;15.00;10.97;;;;;;;-4.54;100.00;99083.97;5115354;28;20437;-75
2024/01/21 05:11:37;;;;;;;17.13;11.37;;;;;;;-4.44;100.00;99087.66;5115524;28;20526;-75
2024/01/21 05:14:04;;;;;;;18.00;12.40;;;;;;;-4.45;100.00;99084.22;5115434;28;20458;-75
2024/01/21 05:16:30;;;;;;;18.30;12.50;;;;;;;-4.38;100.00;99093.25;5115507;28;20439;-75
2024/01/21 05:18:57;;;;;;;16.80;11.53;;;;;;;-4.44;100.00;99108.41;5115056;28;20431;-75
2024/01/21 05:21:23;;;;;;;19.27;13.10;;;;;;;-4.47;100.00;99109.44;5114826;28;20906;-75
2024/01/21 05:23:52;;;;;;;17.13;11.37;;;;;;;-4.53;100.00;99115.03;5115026;28;20895;-75
2024/01/21 05:26:18;;;;;;;15.63;11.50;;;;;;;-4.50;100.00;99126.97;5115312;28;20462;-75
2024/01/21 05:28:46;;;;;;;18.27;11.83;;;;;;;-4.56;100.00;99133.38;5115317;28;20462;-75
2024/01/21 05:31:13;;;;;;;19.00;11.77;;;;;;;-4.54;100.00;99130.69;5115983;28;20934;-75
2024/01/21 05:33:40;;;;;;;18.00;12.20;;;;;;;-4.45;100.00;99141.31;5115259;28;20432;-75
2024/01/21 05:36:08;;;;;;;16.03;11.57;;;;;;;-4.44;100.00;99134.38;5115206;28;20821;-75
2024/01/21 05:38:34;;;;;;;15.13;10.27;;;;;;;-4.34;100.00;99130.25;5115024;28;20530;-75
2024/01/21 05:41:01;;;;;;;16.57;10.90;;;;;;;-4.36;100.00;99143.31;5114872;28;20460;-75
2024/01/21 05:43:27;;;;;;;13.93;9.90;;;;;;;-4.25;100.00;99140.03;5114846;28;20445;-75
2024/01/21 05:45:54;;;;;;;13.83;10.67;;;;;;;-4.21;100.00;99134.50;5114823;28;20479;-75
2024/01/21 05:48:20;;;;;;;13.80;9.10;;;;;;;-4.19;100.00;99129.22;5114472;27;20451;-75
2024/01/21 05:50:46;;;;;;;13.10;7.97;;;;;;;-4.11;100.00;99140.75;5114433;28;20512;-75
2024/01/21 05:53:13;;;;;;;11.40;7.87;;;;;;;-3.96;100.00;99149.28;5114713;28;20441;-75
2024/01/21 05:55:39;;;;;;;9.30;6.67;;;;;;;-3.98;100.00;99156.38;5114615;28;20438;-75
2024/01/21 05:58:06;;;;;;;10.10;6.57;;;;;;;-3.92;100.00;99156.78;5113552;28;20443;-75
2024/01/21 06:00:32;;;;;;;7.93;5.80;;;;;;;-3.90;100.00;99151.47;5114796;28;20448;-75
2024/01/21 06:02:58;;;;;;;8.70;6.00;;;;;;;-3.93;100.00;99151.69;5114627;28;20442;-75
2024/01/21 06:05:25;;;;;;;7.70;5.87;;;;;;;-3.96;100.00;99164.88;5114476;28;20475;-75
2024/01/21 06:07:51;;;;;;;7.30;5.63;;;;;;;-3.89;100.00;99177.34;5114334;28;20443;-75
2024/01/21 06:10:17;;;;;;;8.50;6.30;;;;;;;-3.92;100.00;99177.56;5113999;28;20974;-75
2024/01/21 06:12:44;;;;;;;8.70;6.13;;;;;;;-3.93;100.00;99180.25;5113923;28;20794;-75
2024/01/21 06:15:12;;;;;;;6.97;5.47;;;;;;;-3.93;100.00;99173.28;5113982;28;20941;-75
2024/01/21 06:17:38;;;;;;;9.07;5.60;;;;;;;-3.94;100.00;99171.63;5113530;28;20448;-75
2024/01/21 06:20:05;;;;;;;8.87;6.40;;;;;;;-4.02;100.00;99171.31;5114262;28;20451;-75
2024/01/21 06:22:31;;;;;;;8.80;6.40;;;;;;;-4.09;100.00;99175.25;5113997;28;20538;-75
2024/01/21 06:24:58;;;;;;;9.57;6.33;;;;;;;-4.12;100.00;99180.63;5114122;28;20482;-75
2024/01/21 06:27:24;;;;;;;10.07;6.37;;;;;;;-4.19;100.00;99181.16;5114314;28;20435;-75
2024/01/21 06:29:50;;;;;;;12.13;7.33;;;;;;;-4.27;100.00;99186.84;5114179;28;20462;-75
2024/01/21 06:32:17;;;;;;;11.27;8.10;;;;;;;-4.23;100.00;99184.88;5114209;28;20427;-75
2024/01/21 06:34:43;;;;;;;18.17;10.47;;;;;;;-4.28;100.00;99181.75;5113825;28;20434;-75
2024/01/21 06:37:09;;;;;;;17.10;11.93;;;;;;;-4.34;100.00;99164.78;5113646;28;20969;-75
2024/01/21 06:39:36;;;;;;;16.47;10.80;;;;;;;-4.36;100.00;99166.66;5113492;28;20812;-75
2024/01/21 06:42:02;;;;;;;14.63;11.20;;;;;;;-4.43;100.00;99169.78;5113897;28;20432;-75
2024/01/21 06:44:28;;;;;;;16.13;10.50;;;;;;;-4.48;100.00;99164.03;5113831;28;20509;-75
2024/01/21 06:46:55;;;;;;;18.47;11.90;;;;;;;-4.47;100.00;99163.91;5114000;28;20435;-75
2024/01/21 06:49:21;;;;;;;16.53;11.33;;;;;;;-4.46;100.00;99170.81;5113491;28;20459;-75
2024/01/21 06:51:53;;;;;;;15.27;11.20;;;;;;;-4.55;100.00;99165.34;5113964;28;20817;-75
2024/01/21 06:54:20;;;;;;;16.83;12.20;;;;;;;-4.52;100.00;99160.78;5114065;28;20428;-75
2024/01/21 06:56:46;;;;;;;17.57;11.37;;;;;;;-4.55;100.00;99161.00;5113938;28;20432;-75
2024/01/21 06:59:13;;;;;;;18.03;11.40;;;;;;;-4.59;100.00;99167.31;5113441;28;20447;-75
2024/01/21 07:01:39;;;;;;;17.33;11.50;;;;;;;-4.54;100.00;99172.19;5113860;28;20488;-75
2024/01/21 07:04:06;;;;;;;16.53;11.40;;;;;;;-4.55;100.00;99167.94;5113487;28;20778;-75
2024/01/21 07:06:32;;;;;;;18.10;10.67;;;;;;;-4.60;100.00;99168.25;5113574;28;20505;-75
2024/01/21 07:08:58;;;;;;;15.57;10.57;;;;;;;-4.63;100.00;99155.47;5113609;28;20438;-75
2024/01/21 07:11:25;;;;;;;15.83;10.57;;;;;;;-4.57;100.00;99160.25;5113685;28;20431;-75
2024/01/21 07:13:52;;;;;;;13.77;9.57;;;;;;;-4.58;100.00;99150.81;5113684;28;20522;-75
2024/01/21 07:16:18;;;;;;;14.90;9.47;;;;;;;-4.44;100.00;99148.16;5114346;28;20930;-75
2024/01/21 07:18:44;;;;;;;10.83;7.83;;;;;;;-4.42;100.00;99151.50;5113270;28;20431;-75
2024/01/21 07:21:11;;;;;;;11.83;8.40;;;;;;;-4.37;100.00;99157.22;5113596;28;20459;-75
2024/01/21 07:23:41;;;;;;;13.87;8.67;;;;;;;-4.36;100.00;99151.09;5113247;28;20505;-75
2024/01/21 07:26:07;;;;;;;12.27;8.57;;;;;;;-4.34;100.00;99158.78;5113423;28;20483;-75
2024/01/21 07:28:34;;;;;;;12.87;8.77;;;;;;;-4.21;100.00;99160.47;5116218;28;20514;-75
2024/01/21 07:31:00;;;;;;;12.07;8.83;;;;;;;-4.21;100.00;99181.25;5117525;28;20538;-75
2024/01/21 07:33:26;;;;;;;14.70;8.70;;;;;;;-4.24;100.00;99176.28;5117427;28;20441;-75
2024/01/21 07:35:53;;;;;;;9.90;7.53;;;;;;;-3.99;100.00;99165.91;5117242;28;20431;-75
2024/01/21 07:38:19;;;;;;;12.70;8.27;;;;;;;-3.98;100.00;99166.75;5117238;28;20431;-75
2024/01/21 07:40:47;;;;;;;11.60;7.10;;;;;;;-3.89;100.00;99174.75;5117196;28;20456;-75
2024/01/21 07:43:14;;;;;;;10.20;7.07;;;;;;;-3.74;100.00;99178.09;5117142;28;20447;-75
2024/01/21 07:45:40;;;;;;;10.07;7.10;;;;;;;-3.70;100.00;99184.75;5116602;28;20520;-75
2024/01/21 07:48:07;;;;;;;10.03;7.90;;;;;;;-3.67;100.00;99180.19;5117196;28;20465;-75
2024/01/21 07:50:34;;;;;;;10.77;7.77;;;;;;;-3.62;100.00;99178.09;5116814;28;20463;-75
2024/01/21 07:53:00;;;;;;;13.70;7.33;;;;;;;-3.54;100.00;99170.63;5117009;28;20431;-75
2024/01/21 07:55:27;;;;;;;8.93;7.03;;;;;;;-3.62;100.00;99154.72;5116620;28;20423;-75
2024/01/21 07:57:53;;;;;;;11.87;8.10;;;;;;;-3.45;100.00;99154.41;5116746;28;20973;-75
2024/01/21 08:00:20;;;;;;;13.43;8.00;;;;;;;-3.43;100.00;99164.69;5116981;28;20451;-75
2024/01/21 08:02:46;;;;;;;11.90;8.70;;;;;;;-3.37;100.00;99154.72;5116913;28;20438;-75
2024/01/21 08:05:12;;;;;;;9.63;7.80;;;;;;;-3.12;100.00;99156.44;5116298;28;20481;-75
2024/01/21 08:07:39;;;;;;;12.80;8.57;;;;;;;-3.05;100.00;99158.50;5116744;28;20431;-75
2024/01/21 08:10:06;;;;;;;12.60;8.67;;;;;;;-2.96;100.00;99164.81;5116826;28;20447;-75
2024/01/21 08:12:32;;;;;;;13.37;9.60;;;;;;;-2.97;100.00;99164.00;5116729;28;20443;-75
2024/01/21 08:14:58;;;;;;;14.23;9.53;;;;;;;-2.86;100.00;99161.47;5116787;28;20434;-75
2024/01/21 08:17:25;;;;;;;12.47;9.17;;;;;;;-2.84;100.00;99163.97;5116593;28;20431;-75
2024/01/21 08:19:51;;;;;;;15.70;9.77;;;;;;;-2.76;100.00;99166.84;5116204;28;20493;-75
2024/01/21 08:22:17;;;;;;;14.33;8.47;;;;;;;-2.87;100.00;99169.38;5116319;28;20479;-75
2024/01/21 08:24:44;;;;;;;11.37;9.07;;;;;;;-2.69;100.00;99181.91;5116090;28;20444;-75
2024/01/21 08:27:10;;;;;;;12.87;8.70;;;;;;;-2.59;100.00;99185.50;5116476;28;20799;-75
2024/01/21 08:29:39;;;;;;;12.67;8.97;;;;;;;-2.61;100.00;99190.00;5116389;28;20464;-75
2024/01/21 08:32:07;;;;;;;13.90;9.57;;;;;;;-2.62;100.00;99180.50;5116237;28;20427;-75
2024/01/21 08:34:33;;;;;;;13.60;10.10;;;;;;;-2.50;100.00;99182.25;5116287;28;20444;-75
2024/01/21 08:37:00;;;;;;;16.03;9.43;;;;;;;-2.50;100.00;99197.88;5115902;28;20940;-75
2024/01/21 08:39:26;;;;;;;13.97;9.30;;;;;;;-2.37;100.00;99195.22;5114764;28;20996;-75
2024/01/21 08:41:53;;;;;;;14.63;9.60;;;;;;;-2.38;100.00;99189.19;5116040;28;20484;-75
2024/01/21 08:44:20;;;;;;;13.40;10.20;;;;;;;-2.36;100.00;99192.50;5115926;28;20449;-75
2024/01/21 08:46:46;;;;;;;13.27;9.70;;;;;;;-2.17;100.00;99190.22;5115854;28;20484;-75
2024/01/21 08:49:12;;;;;;;12.53;9.00;;;;;;;-2.07;100.00;99187.78;5115801;28;20442;-75
2024/01/21 08:51:39;;;;;;;12.10;8.43;;;;;;;-2.08;100.00;99176.50;5115689;28;20470;-75
2024/01/21 08:54:05;;;;;;;12.97;9.43;;;;;;;-2.11;100.00;99189.78;5115771;28;20435;-75
2024/01/21 08:56:32;;;;;;;12.87;8.73;;;;;;;-2.11;100.00;99188.94;5116021;28;20427;-75
2024/01/21 08:58:58;;;;;;;12.33;8.83;;;;;;;-2.03;100.00;99184.81;5115328;28;20821;-75
2024/01/21 09:01:25;;;;;;;11.73;8.90;;;;;;;-2.08;100.00;99186.94;5115619;28;20442;-75
2024/01/21 09:03:51;;;;;;;15.97;9.20;;;;;;;-1.89;100.00;99186.41;5115480;28;20438;-75
2024/01/21 09:06:17;;;;;;;15.70;9.27;;;;;;;-1.91;100.00;99183.06;5115399;28;20482;-75
2024/01/21 09:08:44;;;;;;;14.63;9.73;;;;;;;-1.89;100.00;99189.03;5115549;28;20427;-75
2024/01/21 09:11:10;;;;;;;14.37;9.57;;;;;;;-2.00;100.00;99179.38;5115459;28;20225;-75
2024/01/21 09:13:37;;;;;;;19.47;9.33;;;;;;;-1.99;100.00;99190.66;5115333;28;20427;-75
2024/01/21 09:16:04;;;;;;;11.70;8.97;;;;;;;-1.88;100.00;99182.84;5115182;28;20496;-75
2024/01/21 09:18:31;;;;;;;13.37;9.27;;;;;;;-1.89;100.00;99189.03;5115132;28;20439;-75
2024/01/21 09:20:58;;;;;;;13.77;8.83;;;;;;;-1.81;100.00;99192.69;5115089;28;20458;-75
2024/01/21 09:23:25;;;;;;;12.43;8.97;;;;;;;-1.74;100.00;99190.47;5115251;28;20443;-75
2024/01/21 09:25:51;;;;;;;15.03;8.83;;;;;;;-1.62;100.00;99189.56;5114958;28;20835;-75
2024/01/21 09:28:18;;;;;;;11.10;7.83;;;;;;;-1.48;100.00;99211.03;5114504;28;20945;-75
2024/01/21 09:30:44;;;;;;;11.67;8.43;;;;;;;-1.59;100.00;99189.31;5114707;28;20993;-75
2024/01/21 09:33:10;;;;;;;12.33;8.73;;;;;;;-1.57;100.00;99187.44;5114629;28;20442;-75
2024/01/21 09:35:37;;;;;;;11.27;8.83;;;;;;;-1.49;100.00;99183.28;5114486;28;20431;-75
2024/01/21 09:38:04;;;;;;;14.17;9.23;;;;;;;-1.39;100.00;99184.25;5114958;28;20442;-75
2024/01/21 09:40:31;;;;;;;12.60;9.23;;;;;;;-1.28;100.00;99179.06;5114841;28;20455;-75
2024/01/21 09:42:57;;;;;;;14.83;9.70;;;;;;;-1.28;100.00;99168.63;5114719;28;20443;-75
2024/01/21 09:45:25;;;;;;;17.97;8.60;;;;;;;-1.15;100.00;99187.59;5114727;28;20482;-75
2024/01/21 09:47:55;;;;;;;12.10;8.80;;;;;;;-1.03;100.00;99189.25;5114865;27;20207;-75
2024/01/21 09:50:22;;;;;;;11.33;8.10;;;;;;;-0.89;100.00;99194.22;5114574;28;20231;-75
2024/01/21 09:52:48;;;;;;;13.20;8.90;;;;;;;-0.92;100.00;99212.75;5114711;28;20566;-75
2024/01/21 09:55:15;;;;;;;12.83;8.50;;;;;;;-0.74;100.00;99213.91;5114677;28;20199;-75
2024/01/21 09:57:41;;;;;;;10.77;8.20;;;;;;;-0.65;100.00;99210.56;5114440;28;20576;-75
2024/01/21 10:00:10;;;;;;;12.77;8.30;;;;;;;-0.58;100.00;99210.94;5114467;28;20316;-75
2024/01/21 10:02:37;;;;;;;11.73;8.57;;;;;;;-0.53;100.00;99214.00;5114451;28;20210;-75
2024/01/21 10:05:04;;;;;;;13.30;8.27;;;;;;;-0.37;100.00;99207.44;5114468;28;20440;-75
2024/01/21 10:07:32;;;;;;;14.17;8.60;;;;;;;-0.13;100.00;99210.66;5114258;28;20228;-75
2024/01/21 10:09:58;;;;;;;10.60;8.00;;;;;;;-0.17;100.00;99211.88;5114385;28;20235;-75
2024/01/21 10:12:25;;;;;;;10.43;8.07;;;;;;;-0.09;100.00;99209.47;5114402;28;20207;-75
2024/01/21 10:14:52;;;;;;;12.60;7.70;;;;;;;0.05;100.00;99209.16;5114347;28;20610;-75
2024/01/21 10:17:25;;;;;;;13.43;7.37;;;;;;;0.27;100.00;99200.38;5114071;28;20221;-75
2024/01/21 10:19:54;;;;;;;11.67;7.87;;;;;;;0.43;100.00;99190.31;5113878;28;20227;-75
2024/01/21 10:22:23;;;;;;;11.33;8.23;;;;;;;0.45;100.00;99200.66;5113957;27;20212;-75
2024/01/21 10:24:50;;;;;;;12.20;8.20;;;;;;;0.45;100.00;99213.75;5113802;28;20298;-75
2024/01/21 10:27:17;;;;;;;9.80;7.50;;;;;;;0.56;100.00;99213.66;5114042;28;20219;-75
2024/01/21 10:29:45;;;;;;;8.50;6.90;;;;;;;0.76;100.00;99212.84;5114236;28;20227;-75
2024/01/21 10:32:13;;;;;;;9.77;7.50;;;;;;;0.91;100.00;99216.75;5114364;28;20210;-75
2024/01/21 10:34:49;;;;;;;9.73;7.83;;;;;;;0.92;100.00;99200.09;5116453;28;20548;-75
2024/01/21 10:37:16;;;;;;;11.20;8.40;;;;;;;0.68;100.00;99174.22;5114677;28;20194;-75
2024/01/21 10:39:47;;;;;;;11.20;8.00;;;;;;;0.67;100.00;99187.44;5113943;28;20223;-75
2024/01/21 10:42:14;;;;;;;16.43;8.20;;;;;;;1.07;100.00;99201.41;5114071;28;20187;-75
2024/01/21 10:44:41;;;;;;;10.47;8.23;;;;;;;1.00;100.00;99219.44;5114030;28;20378;-75
2024/01/21 10:47:09;;;;;;;11.13;7.43;;;;;;;1.00;100.00;99210.75;5113573;28;20700;-75
2024/01/21 10:49:36;;;;;;;11.23;8.07;;;;;;;1.25;100.00;99192.78;5113562;28;20724;-75
2024/01/21 10:52:02;;;;;;;11.53;8.03;;;;;;;1.23;100.00;99202.59;5113489;28;20214;-75
2024/01/21 10:54:29;;;;;;;12.77;7.90;;;;;;;1.40;100.00;99201.09;5113503;28;20564;-75
2024/01/21 10:56:57;;;;;;;13.53;8.70;;;;;;;1.53;100.00;99199.06;5113859;28;20221;-75
2024/01/21 10:59:24;;;;;;;13.73;8.37;;;;;;;1.51;100.00;99187.88;5113649;28;20230;-76
2024/01/21 11:01:51;;;;;;;13.20;8.47;;;;;;;1.64;100.00;99199.78;5113812;28;20231;-76
2024/01/21 11:04:17;;;;;;;11.20;7.93;;;;;;;1.69;100.00;99199.38;5117521;28;20662;-75
2024/01/21 11:06:48;;;;;;;13.27;8.00;;;;;;;2.20;100.00;99200.78;5117246;28;20223;-75
2024/01/21 11:09:16;;;;;;;15.00;8.43;;;;;;;2.09;100.00;99207.97;5117751;28;20192;-75
2024/01/21 11:11:44;;;;;;;9.20;7.50;;;;;;;2.26;100.00;99199.41;5117576;28;20256;-76
2024/01/21 11:14:29;;;;;;;14.30;8.03;;;;;;;2.12;100.00;99229.50;5117828;28;20226;-76